Burtonville, Kentucky
Current Conditions -  °F | °C
As of 4:15 PM on Tuesday 21 Oct 2014 (Local Time) from KFGX Reporting Station
Overcast Overcast  
Wind Chill: 52°   Ceiling: 5000
Heat Index: 52°   Visibility: 10mi
Dew Point: 40°   Wind: 3mph
Humidity: 64%   Direction: 330°NNW
Pressure: 30.07"   Gusts: NA
Location:  38.5845°N, 83.5468°W
Report Text: KFGX 212015Z AUTO 33003KT 10SM SCT036 SCT043 OVC050 11/05 A3007 RMK AO2 T01100045
Loading
Personal Weather Stations






























Interactive Weather Map New forecast layout! Learn more

10-Day Weather Forecast

Advertisements
Track Severe Weather on mobile